createdAt,value
2019-03-26T00:00:41.837Z,1024.42
2019-03-26T00:01:41.847Z,1024.43
2019-03-26T00:02:41.867Z,1024.38
2019-03-26T00:03:41.876Z,1024.39
2019-03-26T00:04:41.885Z,1024.40
2019-03-26T00:05:41.895Z,1024.36
2019-03-26T00:06:41.909Z,1024.42
2019-03-26T00:07:41.921Z,1024.39
2019-03-26T00:08:41.933Z,1024.44
2019-03-26T00:09:41.945Z,1024.43
2019-03-26T00:10:41.953Z,1024.37
2019-03-26T00:11:41.966Z,1024.39
2019-03-26T00:12:41.983Z,1024.32
2019-03-26T00:13:41.985Z,1024.37
2019-03-26T00:14:42.007Z,1024.43
2019-03-26T00:15:42.012Z,1024.40
2019-03-26T00:16:42.017Z,1024.46
2019-03-26T00:17:42.035Z,1024.43
2019-03-26T00:18:42.033Z,1024.46
2019-03-26T00:19:42.063Z,1024.45
2019-03-26T00:20:42.078Z,1024.46
2019-03-26T00:21:42.081Z,1024.44
2019-03-26T00:22:42.151Z,1024.45
2019-03-26T00:23:42.109Z,1024.46
2019-03-26T00:24:43.051Z,1024.49
2019-03-26T00:25:42.133Z,1024.53
2019-03-26T00:26:42.147Z,1024.53
2019-03-26T00:27:42.170Z,1024.55
2019-03-26T00:28:42.155Z,1024.55
2019-03-26T00:29:42.179Z,1024.55
2019-03-26T00:30:42.189Z,1024.57
2019-03-26T00:31:42.199Z,1024.60
2019-03-26T00:32:42.211Z,1024.56
2019-03-26T00:33:42.232Z,1024.55
2019-03-26T00:34:42.238Z,1024.55
2019-03-26T00:35:42.237Z,1024.56
2019-03-26T00:36:42.249Z,1024.57
2019-03-26T00:37:42.269Z,1024.56
2019-03-26T00:38:42.333Z,1024.57
2019-03-26T00:39:42.292Z,1024.59
2019-03-26T00:40:42.297Z,1024.60
2019-03-26T00:41:42.309Z,1024.58
2019-03-26T00:42:42.327Z,1024.56
2019-03-26T00:43:42.338Z,1024.62
2019-03-26T00:44:42.352Z,1024.59
2019-03-26T00:45:42.355Z,1024.55
2019-03-26T00:46:42.368Z,1024.57
2019-03-26T00:47:42.377Z,1024.60
2019-03-26T00:48:42.412Z,1024.62
2019-03-26T00:49:42.406Z,1024.56
2019-03-26T00:50:42.418Z,1024.59
2019-03-26T00:51:42.429Z,1024.56
2019-03-26T00:52:42.436Z,1024.56
2019-03-26T00:53:42.445Z,1024.57
2019-03-26T00:54:42.457Z,1024.62
2019-03-26T00:55:42.471Z,1024.57
2019-03-26T00:56:42.481Z,1024.59
2019-03-26T00:57:42.496Z,1024.59
2019-03-26T00:58:42.500Z,1024.60
2019-03-26T00:59:42.510Z,1024.58
2019-03-26T01:00:42.522Z,1024.60
2019-03-26T01:01:42.534Z,1024.61
2019-03-26T01:02:42.557Z,1024.59
2019-03-26T01:03:42.571Z,1024.59
2019-03-26T01:04:42.577Z,1024.60
2019-03-26T01:05:42.582Z,1024.57
2019-03-26T01:06:42.600Z,1024.61
2019-03-26T01:07:42.615Z,1024.58
2019-03-26T01:08:42.624Z,1024.66
2019-03-26T01:09:42.631Z,1024.64
2019-03-26T01:10:42.636Z,1024.68
2019-03-26T01:11:42.660Z,1024.64
2019-03-26T01:12:42.665Z,1024.68
2019-03-26T01:13:42.678Z,1024.63
2019-03-26T01:14:42.696Z,1024.63
2019-03-26T01:15:42.702Z,1024.63
2019-03-26T01:16:42.719Z,1024.57
2019-03-26T01:17:42.721Z,1024.60
2019-03-26T01:18:42.733Z,1024.60
2019-03-26T01:19:42.744Z,1024.64
2019-03-26T01:20:42.753Z,1024.65
2019-03-26T01:21:42.767Z,1024.64
2019-03-26T01:22:42.782Z,1024.69
2019-03-26T01:23:42.789Z,1024.72
2019-03-26T01:24:42.800Z,1024.73
2019-03-26T01:25:42.809Z,1024.73
2019-03-26T01:26:42.824Z,1024.77
2019-03-26T01:27:42.840Z,1024.74
2019-03-26T01:28:42.848Z,1024.79
2019-03-26T01:29:42.867Z,1024.73
2019-03-26T01:30:42.870Z,1024.70
2019-03-26T01:31:42.883Z,1024.74
2019-03-26T01:32:42.900Z,1024.72
2019-03-26T01:33:42.907Z,1024.73
2019-03-26T01:34:46.180Z,1024.73
2019-03-26T01:35:42.922Z,1024.73
2019-03-26T01:36:42.942Z,1024.69
2019-03-26T01:37:42.954Z,1024.67
2019-03-26T01:38:42.965Z,1024.67
2019-03-26T01:39:42.975Z,1024.71
2019-03-26T01:40:42.982Z,1024.68
2019-03-26T01:41:43.000Z,1024.69
2019-03-26T01:42:43.012Z,1024.71
2019-03-26T01:43:43.024Z,1024.71
2019-03-26T01:44:43.024Z,1024.76
2019-03-26T01:45:43.046Z,1024.73
2019-03-26T01:46:43.056Z,1024.77
2019-03-26T01:47:43.068Z,1024.76
2019-03-26T01:48:43.077Z,1024.79
2019-03-26T01:49:43.089Z,1024.77
2019-03-26T01:50:43.101Z,1024.79
2019-03-26T01:51:43.109Z,1024.75
2019-03-26T01:52:43.130Z,1024.77
2019-03-26T01:53:43.134Z,1024.78
2019-03-26T01:54:43.142Z,1024.79
2019-03-26T01:55:43.156Z,1024.73
2019-03-26T01:56:43.176Z,1024.82
2019-03-26T01:57:43.182Z,1024.77
2019-03-26T01:58:43.208Z,1024.73
2019-03-26T01:59:43.200Z,1024.82
2019-03-26T02:00:43.220Z,1024.83
2019-03-26T02:01:43.224Z,1024.84
2019-03-26T02:02:43.235Z,1024.85
2019-03-26T02:03:43.246Z,1024.87
2019-03-26T02:04:43.260Z,1024.86
2019-03-26T02:05:43.260Z,1024.92
2019-03-26T02:06:43.290Z,1024.88
2019-03-26T02:07:43.306Z,1024.90
2019-03-26T02:08:43.306Z,1024.92
2019-03-26T02:09:43.314Z,1024.93
2019-03-26T02:10:43.328Z,1024.93
2019-03-26T02:11:43.342Z,1024.91
2019-03-26T02:12:43.354Z,1024.96
2019-03-26T02:13:43.364Z,1024.99
2019-03-26T02:14:43.372Z,1024.93
2019-03-26T02:15:43.384Z,1024.98
2019-03-26T02:16:43.396Z,1024.94
2019-03-26T02:17:43.396Z,1024.98
2019-03-26T02:18:43.416Z,1024.97
2019-03-26T02:19:43.434Z,1024.98
2019-03-26T02:20:43.438Z,1024.99
2019-03-26T02:21:43.452Z,1024.97
2019-03-26T02:22:43.464Z,1024.99
2019-03-26T02:23:43.472Z,1025.01
2019-03-26T02:24:43.485Z,1024.95
2019-03-26T02:25:43.494Z,1024.97
2019-03-26T02:26:43.516Z,1024.93
2019-03-26T02:27:43.517Z,1024.97
2019-03-26T02:28:43.531Z,1024.96
2019-03-26T02:29:43.543Z,1024.97
2019-03-26T02:30:43.553Z,1024.98
2019-03-26T02:31:43.567Z,1024.95
2019-03-26T02:32:43.574Z,1024.95
2019-03-26T02:33:43.581Z,1024.91
2019-03-26T02:34:43.597Z,1024.97
2019-03-26T02:35:43.602Z,1024.95
2019-03-26T02:36:43.618Z,1025.00
2019-03-26T02:37:43.635Z,1024.99
2019-03-26T02:38:43.644Z,1025.07
2019-03-26T02:39:43.661Z,1025.05
2019-03-26T02:40:43.662Z,1025.04
2019-03-26T02:41:43.679Z,1025.03
2019-03-26T02:42:43.690Z,1025.09
2019-03-26T02:43:43.709Z,1025.00
2019-03-26T02:44:43.708Z,1025.02
2019-03-26T02:45:43.730Z,1025.03
2019-03-26T02:46:43.728Z,1025.02
2019-03-26T02:47:43.746Z,1025.02
2019-03-26T02:48:43.824Z,1025.01
2019-03-26T02:49:43.792Z,1025.04
2019-03-26T02:50:43.773Z,1025.04
2019-03-26T02:51:43.796Z,1025.01
2019-03-26T02:52:43.802Z,1025.00
2019-03-26T02:53:43.841Z,1025.03
2019-03-26T02:54:43.820Z,1025.06
2019-03-26T02:55:43.830Z,1024.98
2019-03-26T02:56:43.844Z,1025.06
2019-03-26T02:57:43.854Z,1025.07
2019-03-26T02:58:43.869Z,1025.01
2019-03-26T02:59:43.880Z,1025.07
2019-03-26T03:00:43.896Z,1025.01
2019-03-26T03:01:43.886Z,1024.97
2019-03-26T03:02:43.907Z,1025.02
2019-03-26T03:03:43.923Z,1024.98
2019-03-26T03:04:43.937Z,1025.01
2019-03-26T03:05:43.935Z,1025.04
2019-03-26T03:06:43.966Z,1025.04
2019-03-26T03:07:43.965Z,1025.09
2019-03-26T03:08:43.980Z,1025.04
2019-03-26T03:09:43.989Z,1025.01
2019-03-26T03:10:43.993Z,1024.97
2019-03-26T03:11:44.035Z,1024.97
2019-03-26T03:12:44.023Z,1024.95
2019-03-26T03:13:44.033Z,1024.97
2019-03-26T03:14:44.044Z,1024.95
2019-03-26T03:15:44.055Z,1024.99
2019-03-26T03:16:44.071Z,1025.04
2019-03-26T03:17:44.078Z,1025.05
2019-03-26T03:18:44.090Z,1025.06
2019-03-26T03:19:44.099Z,1025.09
2019-03-26T03:20:44.578Z,1025.08
2019-03-26T03:21:44.130Z,1025.11
2019-03-26T03:22:44.188Z,1025.07
2019-03-26T03:23:44.146Z,1025.07
2019-03-26T03:24:44.175Z,1025.12
2019-03-26T03:25:44.173Z,1025.09
2019-03-26T03:26:44.203Z,1025.09
2019-03-26T03:27:44.198Z,1025.11
2019-03-26T03:28:44.224Z,1025.15
2019-03-26T03:29:44.214Z,1025.17
2019-03-26T03:30:44.234Z,1025.16
2019-03-26T03:31:44.240Z,1025.20
2019-03-26T03:32:44.260Z,1025.21
2019-03-26T03:33:44.280Z,1025.19
2019-03-26T03:34:44.284Z,1025.15
2019-03-26T03:35:51.841Z,1025.14
2019-03-26T03:36:44.318Z,1025.13
2019-03-26T03:37:44.307Z,1025.12
2019-03-26T03:38:44.324Z,1025.17
2019-03-26T03:39:44.339Z,1025.21
2019-03-26T03:40:44.346Z,1025.13
2019-03-26T03:41:44.369Z,1025.15
2019-03-26T03:42:44.364Z,1025.16
2019-03-26T03:43:44.374Z,1025.20
2019-03-26T03:44:44.398Z,1025.22
2019-03-26T03:45:44.409Z,1025.23
2019-03-26T03:46:44.415Z,1025.27
2019-03-26T03:47:44.423Z,1025.22
2019-03-26T03:48:44.432Z,1025.25
2019-03-26T03:49:44.445Z,1025.27
2019-03-26T03:50:44.466Z,1025.22
2019-03-26T03:51:44.471Z,1025.26
2019-03-26T03:52:44.485Z,1025.30
2019-03-26T03:53:44.616Z,1025.28
2019-03-26T03:54:44.504Z,1025.25
2019-03-26T03:55:44.520Z,1025.27
2019-03-26T03:56:44.534Z,1025.26
2019-03-26T03:57:44.545Z,1025.30
2019-03-26T03:58:44.554Z,1025.26
2019-03-26T03:59:44.562Z,1025.27
2019-03-26T04:00:44.571Z,1025.31
2019-03-26T04:01:44.582Z,1025.29
2019-03-26T04:02:44.596Z,1025.31
2019-03-26T04:03:44.613Z,1025.34
2019-03-26T04:04:44.621Z,1025.31
2019-03-26T04:05:44.632Z,1025.31
2019-03-26T04:06:44.642Z,1025.34
2019-03-26T04:07:44.655Z,1025.36
2019-03-26T04:08:44.670Z,1025.30
2019-03-26T04:09:44.677Z,1025.34
2019-03-26T04:10:44.688Z,1025.29
2019-03-26T04:11:44.713Z,1025.33
2019-03-26T04:12:44.715Z,1025.34
2019-03-26T04:13:44.721Z,1025.32
2019-03-26T04:14:44.734Z,1025.35
2019-03-26T04:15:44.751Z,1025.32
2019-03-26T04:16:44.762Z,1025.33
2019-03-26T04:17:44.768Z,1025.32
2019-03-26T04:18:44.784Z,1025.33
2019-03-26T04:19:44.798Z,1025.31
2019-03-26T04:20:44.811Z,1025.32
2019-03-26T04:21:44.812Z,1025.30
2019-03-26T04:22:44.828Z,1025.33
2019-03-26T04:23:44.837Z,1025.28
2019-03-26T04:24:44.849Z,1025.26
2019-03-26T04:25:44.860Z,1025.31
2019-03-26T04:26:44.872Z,1025.31
2019-03-26T04:27:44.882Z,1025.35
2019-03-26T04:28:44.910Z,1025.35
2019-03-26T04:29:44.911Z,1025.37
2019-03-26T04:30:44.907Z,1025.39
2019-03-26T04:31:44.930Z,1025.36
2019-03-26T04:32:44.940Z,1025.40
2019-03-26T04:33:44.945Z,1025.37
2019-03-26T04:34:44.963Z,1025.35
2019-03-26T04:35:44.986Z,1025.36
2019-03-26T04:36:44.991Z,1025.37
2019-03-26T04:37:44.993Z,1025.36
2019-03-26T04:38:45.017Z,1025.34
2019-03-26T04:39:45.021Z,1025.32
2019-03-26T04:40:45.035Z,1025.28
2019-03-26T04:41:45.041Z,1025.29
2019-03-26T04:42:45.058Z,1025.28
2019-03-26T04:43:45.053Z,1025.28
2019-03-26T04:44:45.585Z,1025.22
2019-03-26T04:45:45.090Z,1025.28
2019-03-26T04:46:45.177Z,1025.26
2019-03-26T04:47:45.105Z,1025.28
2019-03-26T04:48:45.127Z,1025.29
2019-03-26T04:49:45.131Z,1025.35
2019-03-26T04:50:45.167Z,1025.38
2019-03-26T04:51:45.146Z,1025.30
2019-03-26T04:52:45.167Z,1025.30
2019-03-26T04:53:45.182Z,1025.24
2019-03-26T04:54:45.184Z,1025.28
2019-03-26T04:55:45.213Z,1025.31
2019-03-26T04:56:45.213Z,1025.36
2019-03-26T04:57:45.227Z,1025.36
2019-03-26T04:58:45.233Z,1025.35
2019-03-26T04:59:45.246Z,1025.37
2019-03-26T05:00:45.257Z,1025.34
2019-03-26T05:01:45.271Z,1025.33
2019-03-26T05:02:45.278Z,1025.33
2019-03-26T05:03:45.288Z,1025.38
2019-03-26T05:04:45.307Z,1025.38
2019-03-26T05:05:45.321Z,1025.39
2019-03-26T05:06:45.332Z,1025.41
2019-03-26T05:07:45.342Z,1025.38
2019-03-26T05:08:45.344Z,1025.33
2019-03-26T05:09:45.367Z,1025.36
2019-03-26T05:10:45.365Z,1025.37
2019-03-26T05:11:45.383Z,1025.37
2019-03-26T05:12:45.399Z,1025.38
2019-03-26T05:13:45.405Z,1025.41
2019-03-26T05:14:45.418Z,1025.42
2019-03-26T05:15:45.415Z,1025.50
2019-03-26T05:16:45.466Z,1025.43
2019-03-26T05:17:45.447Z,1025.42
2019-03-26T05:18:45.460Z,1025.44
2019-03-26T05:19:45.474Z,1025.42
2019-03-26T05:20:45.488Z,1025.32
2019-03-26T05:21:45.495Z,1025.36
2019-03-26T05:22:45.505Z,1025.33
2019-03-26T05:23:45.518Z,1025.31
2019-03-26T05:24:45.529Z,1025.33
2019-03-26T05:25:45.537Z,1025.28
2019-03-26T05:26:45.554Z,1025.30
2019-03-26T05:27:45.972Z,1025.33
2019-03-26T05:28:45.580Z,1025.27
2019-03-26T05:29:45.603Z,1025.29
2019-03-26T05:30:45.595Z,1025.31
2019-03-26T05:31:45.607Z,1025.34
2019-03-26T05:32:45.622Z,1025.30
2019-03-26T05:33:45.631Z,1025.38
2019-03-26T05:34:45.638Z,1025.36
2019-03-26T05:35:45.651Z,1025.39
2019-03-26T05:36:51.321Z,1025.36
2019-03-26T05:37:45.679Z,1025.33
2019-03-26T05:38:45.713Z,1025.34
2019-03-26T05:39:45.695Z,1025.35
2019-03-26T05:40:45.709Z,1025.34
2019-03-26T05:41:45.707Z,1025.33
2019-03-26T05:42:45.731Z,1025.28
2019-03-26T05:43:45.745Z,1025.33
2019-03-26T05:44:45.754Z,1025.31
2019-03-26T05:45:45.761Z,1025.36
2019-03-26T05:46:45.778Z,1025.31
2019-03-26T05:47:45.878Z,1025.32
2019-03-26T05:48:45.801Z,1025.35
2019-03-26T05:49:45.895Z,1025.31
2019-03-26T05:50:45.822Z,1025.32
2019-03-26T05:51:45.950Z,1025.30
2019-03-26T05:52:45.851Z,1025.32
2019-03-26T05:53:45.862Z,1025.27
2019-03-26T05:54:45.868Z,1025.31
2019-03-26T05:55:45.890Z,1025.31
2019-03-26T05:56:45.890Z,1025.31
2019-03-26T05:57:45.922Z,1025.36
2019-03-26T05:58:45.910Z,1025.36
2019-03-26T05:59:45.934Z,1025.41
2019-03-26T06:00:45.938Z,1025.41
2019-03-26T06:01:45.951Z,1025.37
2019-03-26T06:02:45.962Z,1025.44
2019-03-26T06:03:45.971Z,1025.41
2019-03-26T06:04:45.984Z,1025.44
2019-03-26T06:05:45.991Z,1025.51
2019-03-26T06:06:46.006Z,1025.48
2019-03-26T06:07:46.018Z,1025.45
2019-03-26T06:08:46.023Z,1025.49
2019-03-26T06:09:46.041Z,1025.55
2019-03-26T06:10:46.052Z,1025.51
2019-03-26T06:11:46.074Z,1025.49
2019-03-26T06:12:46.075Z,1025.51
2019-03-26T06:13:46.086Z,1025.50
2019-03-26T06:14:46.098Z,1025.53
2019-03-26T06:15:46.105Z,1025.55
2019-03-26T06:16:46.121Z,1025.55
2019-03-26T06:17:46.130Z,1025.53
2019-03-26T06:18:46.138Z,1025.55
2019-03-26T06:19:46.151Z,1025.50
2019-03-26T06:20:46.160Z,1025.61
2019-03-26T06:21:46.174Z,1025.56
2019-03-26T06:22:46.192Z,1025.60
2019-03-26T06:23:46.197Z,1025.67
2019-03-26T06:24:46.205Z,1025.65
2019-03-26T06:25:46.223Z,1025.68
2019-03-26T06:26:46.228Z,1025.66
2019-03-26T06:27:46.247Z,1025.64
2019-03-26T06:28:46.256Z,1025.65
2019-03-26T06:29:46.262Z,1025.63
2019-03-26T06:30:46.276Z,1025.70
2019-03-26T06:31:46.285Z,1025.65
2019-03-26T06:32:46.331Z,1025.65
2019-03-26T06:33:46.309Z,1025.66
2019-03-26T06:34:46.329Z,1025.67
2019-03-26T06:35:46.333Z,1025.69
2019-03-26T06:36:46.367Z,1025.65
2019-03-26T06:37:46.350Z,1025.62
2019-03-26T06:38:46.370Z,1025.67
2019-03-26T06:39:46.378Z,1025.69
2019-03-26T06:40:46.386Z,1025.69
2019-03-26T06:41:46.402Z,1025.70
2019-03-26T06:42:46.425Z,1025.70
2019-03-26T06:43:46.422Z,1025.72
2019-03-26T06:44:46.472Z,1025.71
2019-03-26T06:45:46.441Z,1025.79
2019-03-26T06:46:46.462Z,1025.70
2019-03-26T06:47:46.468Z,1025.73
2019-03-26T06:48:46.470Z,1025.72
2019-03-26T06:49:46.490Z,1025.80
2019-03-26T06:50:46.589Z,1025.87
2019-03-26T06:51:46.519Z,1025.86
2019-03-26T06:52:46.522Z,1025.88
2019-03-26T06:53:46.540Z,1025.90
2019-03-26T06:54:46.546Z,1025.86
2019-03-26T06:55:46.561Z,1025.87
2019-03-26T06:56:46.576Z,1025.86
2019-03-26T06:57:46.578Z,1025.84
2019-03-26T06:58:46.590Z,1025.84
2019-03-26T06:59:46.591Z,1025.85
2019-03-26T07:00:46.611Z,1025.87
2019-03-26T07:01:46.626Z,1025.85
2019-03-26T07:02:46.634Z,1025.89
2019-03-26T07:03:46.646Z,1025.92
2019-03-26T07:04:46.652Z,1025.90
2019-03-26T07:05:46.670Z,1025.97
2019-03-26T07:06:46.680Z,1025.98
2019-03-26T07:07:46.691Z,1025.96
2019-03-26T07:08:46.704Z,1025.96
2019-03-26T07:09:46.712Z,1026.01
2019-03-26T07:10:46.716Z,1026.01
2019-03-26T07:11:46.738Z,1026.04
2019-03-26T07:12:46.758Z,1025.99
2019-03-26T07:13:46.753Z,1026.02
2019-03-26T07:14:46.772Z,1026.08
2019-03-26T07:15:46.782Z,1026.03
2019-03-26T07:16:46.793Z,1026.10
2019-03-26T07:17:46.810Z,1026.09
2019-03-26T07:18:46.816Z,1026.09
2019-03-26T07:19:46.834Z,1026.15
2019-03-26T07:20:46.842Z,1026.14
2019-03-26T07:21:49.733Z,1026.14
2019-03-26T07:22:46.864Z,1026.22
2019-03-26T07:23:46.872Z,1026.21
2019-03-26T07:24:46.892Z,1026.32
2019-03-26T07:25:46.898Z,1026.18
2019-03-26T07:26:46.908Z,1026.18
2019-03-26T07:27:46.920Z,1026.21
2019-03-26T07:28:46.934Z,1026.25
2019-03-26T07:29:46.940Z,1026.18
2019-03-26T07:30:46.954Z,1026.18
2019-03-26T07:31:46.958Z,1026.19
2019-03-26T07:32:46.980Z,1026.20
2019-03-26T07:33:46.985Z,1026.25
2019-03-26T07:34:47.002Z,1026.23
2019-03-26T07:35:47.014Z,1026.27
2019-03-26T07:36:47.022Z,1026.27
2019-03-26T07:37:47.030Z,1026.32
2019-03-26T07:38:47.040Z,1026.35
2019-03-26T07:39:47.055Z,1026.40
2019-03-26T07:40:47.072Z,1026.38
2019-03-26T07:41:47.153Z,1026.32
2019-03-26T07:42:47.095Z,1026.39
2019-03-26T07:43:47.100Z,1026.42
2019-03-26T07:44:47.194Z,1026.44
2019-03-26T07:45:47.129Z,1026.42
2019-03-26T07:46:47.175Z,1026.38
2019-03-26T07:47:47.146Z,1026.42
2019-03-26T07:48:47.158Z,1026.42
2019-03-26T07:49:47.168Z,1026.50
2019-03-26T07:50:47.178Z,1026.45
2019-03-26T07:51:47.197Z,1026.37
2019-03-26T07:52:47.208Z,1026.41
2019-03-26T07:53:47.218Z,1026.32
2019-03-26T07:54:47.260Z,1026.42
2019-03-26T07:55:47.238Z,1026.35
2019-03-26T07:56:47.248Z,1026.39
2019-03-26T07:57:47.270Z,1026.37
2019-03-26T07:58:47.272Z,1026.38
2019-03-26T07:59:47.287Z,1026.40
2019-03-26T08:00:47.291Z,1026.44
2019-03-26T08:01:47.305Z,1026.42
2019-03-26T08:02:47.320Z,1026.40
2019-03-26T08:03:47.341Z,1026.38
2019-03-26T08:04:47.342Z,1026.40
2019-03-26T08:05:47.364Z,1026.41
2019-03-26T08:06:47.370Z,1026.43
2019-03-26T08:07:57.797Z,1026.43
2019-03-26T08:08:47.386Z,1026.44
2019-03-26T08:09:47.400Z,1026.47
2019-03-26T08:10:47.412Z,1026.50
2019-03-26T08:11:47.426Z,1026.48
2019-03-26T08:12:47.455Z,1026.49
2019-03-26T08:13:47.456Z,1026.47
2019-03-26T08:14:47.467Z,1026.57
2019-03-26T08:15:47.486Z,1026.50
2019-03-26T08:16:47.524Z,1026.48
2019-03-26T08:17:47.492Z,1026.49
2019-03-26T08:18:47.501Z,1026.52
2019-03-26T08:19:47.517Z,1026.50
2019-03-26T08:20:47.531Z,1026.48
2019-03-26T08:21:47.541Z,1026.48
2019-03-26T08:22:47.546Z,1026.47
2019-03-26T08:23:47.569Z,1026.45
2019-03-26T08:24:47.579Z,1026.43
2019-03-26T08:25:47.593Z,1026.46
2019-03-26T08:26:47.597Z,1026.48
2019-03-26T08:27:47.615Z,1026.44
2019-03-26T08:28:47.625Z,1026.47
2019-03-26T08:29:47.639Z,1026.46
2019-03-26T08:30:50.163Z,1026.47
2019-03-26T08:31:47.667Z,1026.36
2019-03-26T08:32:47.675Z,1026.50
2019-03-26T08:33:47.684Z,1026.48
2019-03-26T08:34:47.709Z,1026.51
2019-03-26T08:35:47.712Z,1026.54
2019-03-26T08:36:47.719Z,1026.51
2019-03-26T08:37:47.735Z,1026.48
2019-03-26T08:38:47.750Z,1026.52
2019-03-26T08:39:47.759Z,1026.48
2019-03-26T08:40:47.779Z,1026.43
2019-03-26T08:41:47.777Z,1026.44
2019-03-26T08:42:47.789Z,1026.44
2019-03-26T08:43:47.804Z,1026.40
2019-03-26T08:44:47.818Z,1026.39
2019-03-26T08:45:47.832Z,1026.47
2019-03-26T08:46:47.851Z,1026.43
2019-03-26T08:47:47.853Z,1026.42
2019-03-26T08:48:47.878Z,1026.45
2019-03-26T08:49:47.869Z,1026.44
2019-03-26T08:50:47.897Z,1026.49
2019-03-26T08:51:48.019Z,1026.50
2019-03-26T08:52:47.921Z,1026.45
2019-03-26T08:53:47.942Z,1026.49
2019-03-26T08:54:47.947Z,1026.45
2019-03-26T08:55:47.961Z,1026.48
2019-03-26T08:56:47.967Z,1026.41
2019-03-26T08:57:47.992Z,1026.45
2019-03-26T08:58:47.993Z,1026.45
2019-03-26T08:59:48.020Z,1026.46
2019-03-26T09:00:48.020Z,1026.46
2019-03-26T09:01:48.045Z,1026.46
2019-03-26T09:02:48.045Z,1026.45
2019-03-26T09:03:48.072Z,1026.38
2019-03-26T09:04:48.081Z,1026.38
2019-03-26T09:05:48.088Z,1026.38
2019-03-26T09:06:48.101Z,1026.36
2019-03-26T09:07:48.111Z,1026.45
2019-03-26T09:08:48.121Z,1026.41
2019-03-26T09:09:48.140Z,1026.45
2019-03-26T09:10:52.015Z,1026.46
2019-03-26T09:11:48.167Z,1026.43
2019-03-26T09:12:48.177Z,1026.41
2019-03-26T09:13:48.185Z,1026.44
2019-03-26T09:14:48.204Z,1026.46
2019-03-26T09:15:48.228Z,1026.40
2019-03-26T09:16:48.227Z,1026.42
2019-03-26T09:17:48.245Z,1026.40
2019-03-26T09:18:48.255Z,1026.44
2019-03-26T09:19:48.277Z,1026.39
2019-03-26T09:20:48.289Z,1026.41
2019-03-26T09:21:48.298Z,1026.43
2019-03-26T09:22:48.311Z,1026.36
2019-03-26T09:23:48.335Z,1026.31
2019-03-26T09:24:48.340Z,1026.38
2019-03-26T09:25:48.358Z,1026.36
2019-03-26T09:26:48.371Z,1026.35
2019-03-26T09:27:48.380Z,1026.38
2019-03-26T09:28:48.379Z,1026.40
2019-03-26T09:29:48.404Z,1026.42
2019-03-26T09:30:48.445Z,1026.40
2019-03-26T09:31:49.122Z,1026.46
2019-03-26T09:32:48.470Z,1026.42
2019-03-26T09:33:48.461Z,1026.46
2019-03-26T09:34:48.553Z,1026.48
2019-03-26T09:35:48.488Z,1026.51
2019-03-26T09:36:48.515Z,1026.55
2019-03-26T09:37:48.509Z,1026.48
2019-03-26T09:38:48.549Z,1026.44
2019-03-26T09:39:48.542Z,1026.47
2019-03-26T09:40:48.560Z,1026.49
2019-03-26T09:41:48.563Z,1026.46
2019-03-26T09:42:48.581Z,1026.48
2019-03-26T09:43:48.593Z,1026.50
2019-03-26T09:44:48.609Z,1026.49
2019-03-26T09:45:48.623Z,1026.50
2019-03-26T09:46:48.651Z,1026.54
2019-03-26T09:47:48.643Z,1026.50
2019-03-26T09:48:48.661Z,1026.50
2019-03-26T09:49:48.669Z,1026.49
2019-03-26T09:50:48.687Z,1026.60
2019-03-26T09:51:48.705Z,1026.52
2019-03-26T09:52:48.714Z,1026.58
2019-03-26T09:53:48.727Z,1026.59
2019-03-26T09:54:48.736Z,1026.63
2019-03-26T09:55:48.758Z,1026.63
2019-03-26T09:56:48.789Z,1026.61
2019-03-26T09:57:48.777Z,1026.71
2019-03-26T09:58:48.800Z,1026.70
2019-03-26T09:59:48.807Z,1026.69
2019-03-26T10:00:49.033Z,1026.73
2019-03-26T10:01:48.833Z,1026.74
2019-03-26T10:02:48.844Z,1027.67
2019-03-26T10:03:48.867Z,1027.16
2019-03-26T10:04:48.873Z,1027.40
2019-03-26T10:05:48.883Z,1027.41
2019-03-26T10:06:48.896Z,1027.40
2019-03-26T10:07:48.927Z,1027.04
2019-03-26T10:08:52.793Z,1026.71
2019-03-26T10:09:48.937Z,1026.58
2019-03-26T10:10:48.957Z,1026.59
2019-03-26T10:11:48.969Z,1026.52
2019-03-26T10:12:48.985Z,1026.50
2019-03-26T10:13:49.013Z,1026.44
2019-03-26T10:14:49.017Z,1026.44
2019-03-26T10:15:49.029Z,1026.43
2019-03-26T10:16:49.043Z,1026.53
2019-03-26T10:17:49.055Z,1026.46
2019-03-26T10:18:49.072Z,1026.42
2019-03-26T10:19:49.085Z,1026.45
2019-03-26T10:20:49.102Z,1026.37
2019-03-26T10:21:49.115Z,1026.40
2019-03-26T10:22:49.137Z,1026.49
2019-03-26T10:23:49.144Z,1026.39
2019-03-26T10:24:49.153Z,1026.46
2019-03-26T10:25:49.169Z,1026.44
2019-03-26T10:26:49.181Z,1026.41
2019-03-26T10:27:49.193Z,1026.39
2019-03-26T10:28:49.215Z,1026.45
2019-03-26T10:29:49.222Z,1026.45
2019-03-26T10:30:49.244Z,1026.44
2019-03-26T10:31:49.251Z,1026.38
2019-03-26T10:32:49.279Z,1026.36
2019-03-26T10:33:49.275Z,1026.35
2019-03-26T10:34:49.296Z,1026.31
2019-03-26T10:35:49.314Z,1026.38
2019-03-26T10:36:49.319Z,1026.42
2019-03-26T10:37:49.363Z,1026.39
2019-03-26T10:38:49.340Z,1026.37
2019-03-26T10:39:49.345Z,1026.40
2019-03-26T10:40:49.369Z,1026.38
2019-03-26T10:41:49.390Z,1026.43
2019-03-26T10:42:49.398Z,1026.42
2019-03-26T10:43:49.408Z,1026.40
2019-03-26T10:44:49.429Z,1026.39
2019-03-26T10:45:49.434Z,1026.34
2019-03-26T10:46:49.444Z,1026.37
2019-03-26T10:47:49.460Z,1026.41
2019-03-26T10:48:49.483Z,1026.44
2019-03-26T10:49:49.487Z,1026.39
2019-03-26T10:50:49.505Z,1026.44
2019-03-26T10:51:49.511Z,1026.38
2019-03-26T10:52:49.545Z,1026.39
2019-03-26T10:53:49.536Z,1026.37
2019-03-26T10:54:49.553Z,1026.39
2019-03-26T10:55:49.568Z,1026.42
2019-03-26T10:56:49.587Z,1026.40
2019-03-26T10:57:49.596Z,1026.37
2019-03-26T10:58:49.607Z,1026.41
2019-03-26T10:59:49.614Z,1026.44
2019-03-26T11:00:49.633Z,1026.39
2019-03-26T11:01:49.647Z,1026.45
2019-03-26T11:02:49.654Z,1026.37
2019-03-26T11:03:49.662Z,1026.45
2019-03-26T11:04:49.684Z,1026.31
2019-03-26T11:05:49.694Z,1026.39
2019-03-26T11:06:49.703Z,1026.33
2019-03-26T11:07:49.716Z,1026.36
2019-03-26T11:08:49.734Z,1026.32
2019-03-26T11:09:49.747Z,1026.29
2019-03-26T11:10:49.751Z,1026.34
2019-03-26T11:11:49.772Z,1026.24
2019-03-26T11:12:49.780Z,1026.25
2019-03-26T11:13:49.790Z,1026.18
2019-03-26T11:14:49.803Z,1026.16
2019-03-26T11:15:49.814Z,1026.20
2019-03-26T11:16:49.911Z,1026.18
2019-03-26T11:17:49.842Z,1026.19
2019-03-26T11:18:49.861Z,1026.20
2019-03-26T11:19:49.870Z,1026.25
2019-03-26T11:21:01.720Z,1026.25
2019-03-26T11:21:49.889Z,1026.27
2019-03-26T11:22:49.904Z,1026.32
2019-03-26T11:23:49.908Z,1026.28
2019-03-26T11:24:49.932Z,1026.25
2019-03-26T11:25:49.935Z,1026.24
2019-03-26T11:26:49.958Z,1026.32
2019-03-26T11:27:49.982Z,1026.27
2019-03-26T11:28:49.982Z,1026.28
2019-03-26T11:29:50.010Z,1026.31
2019-03-26T11:30:50.006Z,1026.40
2019-03-26T11:31:50.116Z,1026.28
2019-03-26T11:32:50.038Z,1026.28
2019-03-26T11:33:50.054Z,1026.32
2019-03-26T11:34:50.058Z,1026.33
2019-03-26T11:35:50.074Z,1026.36
2019-03-26T11:36:50.088Z,1026.31
2019-03-26T11:37:50.181Z,1026.29
2019-03-26T11:38:50.114Z,1026.23
2019-03-26T11:39:50.120Z,1026.25
2019-03-26T11:40:50.139Z,1026.21
2019-03-26T11:41:50.162Z,1026.23
2019-03-26T11:42:50.163Z,1026.21
2019-03-26T11:43:50.178Z,1026.25
2019-03-26T11:44:50.191Z,1026.32
2019-03-26T11:45:50.206Z,1026.28
2019-03-26T11:46:50.215Z,1026.21
2019-03-26T11:47:50.226Z,1026.24
2019-03-26T11:48:50.243Z,1026.40
2019-03-26T11:49:50.252Z,1026.44
2019-03-26T11:50:50.272Z,1026.66
2019-03-26T11:51:50.282Z,1026.71
2019-03-26T11:52:50.290Z,1026.84
2019-03-26T11:53:50.302Z,1026.80
2019-03-26T11:54:50.330Z,1026.43
2019-03-26T11:55:50.333Z,1026.49
2019-03-26T11:56:50.350Z,1026.71
2019-03-26T11:57:50.363Z,1026.54
2019-03-26T11:58:50.382Z,1026.35
2019-03-26T11:59:50.388Z,1026.32
2019-03-26T12:00:50.405Z,1026.89
2019-03-26T12:01:52.505Z,1026.43
2019-03-26T12:02:50.438Z,1026.30
2019-03-26T12:03:50.453Z,1026.21
2019-03-26T12:04:50.457Z,1026.24
2019-03-26T12:05:50.479Z,1026.23